sensor_id;sensor_type;location;lat;lon;timestamp;pressure;altitude;pressure_sealevel;temperature;humidity
49102;BME280;34913;47.520;19.186;2023-04-06T00:01:39;100086.97;;;-0.03;62.03
49102;BME280;34913;47.520;19.186;2023-04-06T00:04:05;100090.34;;;-0.01;61.86
49102;BME280;34913;47.520;19.186;2023-04-06T00:06:31;100083.91;;;0.10;62.11
49102;BME280;34913;47.520;19.186;2023-04-06T00:08:58;100072.41;;;0.14;61.77
49102;BME280;34913;47.520;19.186;2023-04-06T00:11:24;100074.25;;;0.12;62.23
49102;BME280;34913;47.520;19.186;2023-04-06T00:13:50;100072.63;;;0.09;62.22
49102;BME280;34913;47.520;19.186;2023-04-06T00:16:15;100074.13;;;-0.09;62.66
49102;BME280;34913;47.520;19.186;2023-04-06T00:18:41;100080.63;;;-0.19;62.98
49102;BME280;34913;47.520;19.186;2023-04-06T00:21:06;100071.09;;;-0.20;63.18
49102;BME280;34913;47.520;19.186;2023-04-06T00:23:32;100069.34;;;-0.19;62.56
49102;BME280;34913;47.520;19.186;2023-04-06T00:25:57;100070.38;;;-0.23;62.83
49102;BME280;34913;47.520;19.186;2023-04-06T00:28:23;100067.69;;;-0.22;63.15
49102;BME280;34913;47.520;19.186;2023-04-06T00:30:52;100063.41;;;-0.23;63.56
49102;BME280;34913;47.520;19.186;2023-04-06T00:33:22;100069.84;;;-0.10;63.84
49102;BME280;34913;47.520;19.186;2023-04-06T00:35:48;100062.06;;;-0.11;62.69
49102;BME280;34913;47.520;19.186;2023-04-06T00:38:14;100063.44;;;-0.24;63.85
49102;BME280;34913;47.520;19.186;2023-04-06T00:40:41;100062.19;;;-0.38;64.18
49102;BME280;34913;47.520;19.186;2023-04-06T00:43:07;100052.84;;;-0.43;64.27
49102;BME280;34913;47.520;19.186;2023-04-06T00:45:34;100057.94;;;-0.40;64.97
49102;BME280;34913;47.520;19.186;2023-04-06T00:48:00;100054.94;;;-0.30;65.08
49102;BME280;34913;47.520;19.186;2023-04-06T00:50:27;100061.38;;;-0.16;63.84
49102;BME280;34913;47.520;19.186;2023-04-06T00:52:53;100057.13;;;-0.19;63.65
49102;BME280;34913;47.520;19.186;2023-04-06T00:55:18;100058.91;;;-0.19;63.49
49102;BME280;34913;47.520;19.186;2023-04-06T00:57:44;100053.56;;;-0.16;64.03
49102;BME280;34913;47.520;19.186;2023-04-06T01:00:10;100055.44;;;-0.20;63.05
49102;BME280;34913;47.520;19.186;2023-04-06T01:02:36;100059.81;;;-0.44;64.36
49102;BME280;34913;47.520;19.186;2023-04-06T01:05:01;100059.72;;;-0.66;65.12
49102;BME280;34913;47.520;19.186;2023-04-06T01:07:27;100059.34;;;-0.80;65.85
49102;BME280;34913;47.520;19.186;2023-04-06T01:09:53;100060.84;;;-0.73;65.92
49102;BME280;34913;47.520;19.186;2023-04-06T01:12:19;100060.03;;;-0.50;66.36
49102;BME280;34913;47.520;19.186;2023-04-06T01:14:45;100064.59;;;-0.32;65.19
49102;BME280;34913;47.520;19.186;2023-04-06T01:17:11;100062.25;;;-0.39;64.61
49102;BME280;34913;47.520;19.186;2023-04-06T01:19:37;100059.31;;;-0.53;65.22
49102;BME280;34913;47.520;19.186;2023-04-06T01:22:02;100062.34;;;-0.66;65.63
49102;BME280;34913;47.520;19.186;2023-04-06T01:24:28;100059.09;;;-0.72;66.20
49102;BME280;34913;47.520;19.186;2023-04-06T01:26:53;100047.59;;;-0.67;65.78
49102;BME280;34913;47.520;19.186;2023-04-06T01:29:19;100062.00;;;-0.57;65.63
49102;BME280;34913;47.520;19.186;2023-04-06T01:31:44;100063.09;;;-0.62;65.75
49102;BME280;34913;47.520;19.186;2023-04-06T01:34:10;100065.22;;;-0.73;66.17
49102;BME280;34913;47.520;19.186;2023-04-06T01:36:35;100061.44;;;-0.90;67.24
49102;BME280;34913;47.520;19.186;2023-04-06T01:39:01;100062.22;;;-0.86;67.31
49102;BME280;34913;47.520;19.186;2023-04-06T01:41:27;100064.63;;;-0.81;66.75
49102;BME280;34913;47.520;19.186;2023-04-06T01:43:52;100058.75;;;-0.87;67.07
49102;BME280;34913;47.520;19.186;2023-04-06T01:46:20;100057.53;;;-1.01;67.86
49102;BME280;34913;47.520;19.186;2023-04-06T01:48:45;100054.22;;;-1.06;68.32
49102;BME280;34913;47.520;19.186;2023-04-06T01:51:11;100046.25;;;-1.02;68.41
49102;BME280;34913;47.520;19.186;2023-04-06T01:53:36;100044.22;;;-0.94;68.00
49102;BME280;34913;47.520;19.186;2023-04-06T01:56:02;100049.66;;;-1.00;68.67
49102;BME280;34913;47.520;19.186;2023-04-06T01:58:27;100044.84;;;-0.87;68.67
49102;BME280;34913;47.520;19.186;2023-04-06T02:00:53;100040.19;;;-0.77;68.25
49102;BME280;34913;47.520;19.186;2023-04-06T02:03:18;100042.34;;;-0.65;67.65
49102;BME280;34913;47.520;19.186;2023-04-06T02:05:44;100031.75;;;-0.61;66.82
49102;BME280;34913;47.520;19.186;2023-04-06T02:08:09;100033.38;;;-0.58;67.19
49102;BME280;34913;47.520;19.186;2023-04-06T02:10:35;100035.91;;;-0.55;66.48
49102;BME280;34913;47.520;19.186;2023-04-06T02:13:00;100039.63;;;-0.62;66.56
49102;BME280;34913;47.520;19.186;2023-04-06T02:15:26;100029.22;;;-0.62;66.92
49102;BME280;34913;47.520;19.186;2023-04-06T02:17:52;100033.56;;;-0.63;66.45
49102;BME280;34913;47.520;19.186;2023-04-06T02:20:18;100031.00;;;-0.64;66.55
49102;BME280;34913;47.520;19.186;2023-04-06T02:22:44;100025.28;;;-0.50;66.79
49102;BME280;34913;47.520;19.186;2023-04-06T02:25:09;100026.06;;;-0.48;65.98
49102;BME280;34913;47.520;19.186;2023-04-06T02:27:35;100021.38;;;-0.62;66.28
49102;BME280;34913;47.520;19.186;2023-04-06T02:30:02;100016.97;;;-0.60;66.27
49102;BME280;34913;47.520;19.186;2023-04-06T02:32:28;100029.34;;;-0.67;66.21
49102;BME280;34913;47.520;19.186;2023-04-06T02:34:53;100025.28;;;-0.74;66.55
49102;BME280;34913;47.520;19.186;2023-04-06T02:37:19;100022.84;;;-0.78;66.79
49102;BME280;34913;47.520;19.186;2023-04-06T02:39:45;100027.47;;;-0.87;66.98
49102;BME280;34913;47.520;19.186;2023-04-06T02:42:10;100024.97;;;-0.90;67.70
49102;BME280;34913;47.520;19.186;2023-04-06T02:44:36;100024.00;;;-0.87;67.38
49102;BME280;34913;47.520;19.186;2023-04-06T02:47:01;100032.50;;;-0.82;67.35
49102;BME280;34913;47.520;19.186;2023-04-06T02:49:26;100023.44;;;-0.72;67.95
49102;BME280;34913;47.520;19.186;2023-04-06T02:51:52;100030.28;;;-0.68;67.02
49102;BME280;34913;47.520;19.186;2023-04-06T02:54:17;100020.63;;;-0.66;66.82
49102;BME280;34913;47.520;19.186;2023-04-06T02:56:43;100008.38;;;-0.64;67.14
49102;BME280;34913;47.520;19.186;2023-04-06T02:59:08;100010.22;;;-0.66;66.88
49102;BME280;34913;47.520;19.186;2023-04-06T03:01:34;100020.19;;;-0.77;67.23
49102;BME280;34913;47.520;19.186;2023-04-06T03:04:01;100016.31;;;-0.90;67.70
49102;BME280;34913;47.520;19.186;2023-04-06T03:06:27;100015.66;;;-0.97;68.05
49102;BME280;34913;47.520;19.186;2023-04-06T03:08:52;100013.38;;;-1.06;68.71
49102;BME280;34913;47.520;19.186;2023-04-06T03:11:18;100012.75;;;-1.13;69.00
49102;BME280;34913;47.520;19.186;2023-04-06T03:13:44;100019.63;;;-1.10;69.17
49102;BME280;34913;47.520;19.186;2023-04-06T03:16:10;100016.16;;;-1.10;69.29
49102;BME280;34913;47.520;19.186;2023-04-06T03:18:35;100008.63;;;-1.18;69.55
49102;BME280;34913;47.520;19.186;2023-04-06T03:21:01;100010.66;;;-1.28;70.34
49102;BME280;34913;47.520;19.186;2023-04-06T03:23:26;100016.13;;;-1.35;70.36
49102;BME280;34913;47.520;19.186;2023-04-06T03:25:52;100016.19;;;-1.37;70.66
49102;BME280;34913;47.520;19.186;2023-04-06T03:28:17;100017.94;;;-1.37;70.81
49102;BME280;34913;47.520;19.186;2023-04-06T03:30:43;100018.06;;;-1.41;71.22
49102;BME280;34913;47.520;19.186;2023-04-06T03:33:08;100011.75;;;-1.35;71.15
49102;BME280;34913;47.520;19.186;2023-04-06T03:35:33;100016.19;;;-1.37;71.08
49102;BME280;34913;47.520;19.186;2023-04-06T03:37:59;100015.22;;;-1.34;70.75
49102;BME280;34913;47.520;19.186;2023-04-06T03:40:24;100015.50;;;-1.42;71.10
49102;BME280;34913;47.520;19.186;2023-04-06T03:42:50;100018.38;;;-1.50;71.96
49102;BME280;34913;47.520;19.186;2023-04-06T03:45:16;100010.03;;;-1.61;72.19
49102;BME280;34913;47.520;19.186;2023-04-06T03:47:41;100009.31;;;-1.64;72.24
49102;BME280;34913;47.520;19.186;2023-04-06T03:50:07;100012.69;;;-1.62;72.45
49102;BME280;34913;47.520;19.186;2023-04-06T03:52:35;100003.63;;;-1.51;72.77
49102;BME280;34913;47.520;19.186;2023-04-06T03:55:01;100012.91;;;-1.42;71.95
49102;BME280;34913;47.520;19.186;2023-04-06T03:57:26;100008.63;;;-1.45;72.10
49102;BME280;34913;47.520;19.186;2023-04-06T03:59:52;100003.59;;;-1.49;72.07
49102;BME280;34913;47.520;19.186;2023-04-06T04:02:17;100005.28;;;-1.48;72.34
49102;BME280;34913;47.520;19.186;2023-04-06T04:04:42;100005.59;;;-1.57;72.14
49102;BME280;34913;47.520;19.186;2023-04-06T04:07:08;100000.72;;;-1.68;72.99
49102;BME280;34913;47.520;19.186;2023-04-06T04:09:33;99999.13;;;-1.72;72.99
49102;BME280;34913;47.520;19.186;2023-04-06T04:11:59;99997.38;;;-1.72;74.07
49102;BME280;34913;47.520;19.186;2023-04-06T04:14:24;99995.56;;;-1.70;73.38
49102;BME280;34913;47.520;19.186;2023-04-06T04:16:50;99999.56;;;-1.59;73.39
49102;BME280;34913;47.520;19.186;2023-04-06T04:19:16;100003.69;;;-1.52;72.85
49102;BME280;34913;47.520;19.186;2023-04-06T04:21:43;99994.81;;;-1.47;72.81
49102;BME280;34913;47.520;19.186;2023-04-06T04:24:10;99993.84;;;-1.44;72.43
49102;BME280;34913;47.520;19.186;2023-04-06T04:26:35;99997.97;;;-1.37;72.50
49102;BME280;34913;47.520;19.186;2023-04-06T04:29:01;99994.69;;;-1.42;72.25
49102;BME280;34913;47.520;19.186;2023-04-06T04:31:26;99991.31;;;-1.46;72.49
49102;BME280;34913;47.520;19.186;2023-04-06T04:33:52;99989.13;;;-1.58;73.42
49102;BME280;34913;47.520;19.186;2023-04-06T04:36:17;99983.22;;;-1.63;73.75
49102;BME280;34913;47.520;19.186;2023-04-06T04:38:42;99984.25;;;-1.69;74.39
49102;BME280;34913;47.520;19.186;2023-04-06T04:41:08;99985.81;;;-1.63;74.52
49102;BME280;34913;47.520;19.186;2023-04-06T04:43:33;99986.63;;;-1.61;74.30
49102;BME280;34913;47.520;19.186;2023-04-06T04:45:59;99981.53;;;-1.64;74.52
49102;BME280;34913;47.520;19.186;2023-04-06T04:48:25;99989.03;;;-1.55;74.34
49102;BME280;34913;47.520;19.186;2023-04-06T04:50:51;99985.13;;;-1.43;73.71
49102;BME280;34913;47.520;19.186;2023-04-06T04:53:16;99987.22;;;-1.28;73.19
49102;BME280;34913;47.520;19.186;2023-04-06T04:55:42;99988.84;;;-1.24;72.44
49102;BME280;34913;47.520;19.186;2023-04-06T04:58:07;99985.31;;;-1.23;72.11
49102;BME280;34913;47.520;19.186;2023-04-06T05:00:34;99990.25;;;-1.15;72.40
49102;BME280;34913;47.520;19.186;2023-04-06T05:02:59;99984.84;;;-1.09;72.05
49102;BME280;34913;47.520;19.186;2023-04-06T05:05:25;99986.50;;;-1.06;72.30
49102;BME280;34913;47.520;19.186;2023-04-06T05:07:51;99977.56;;;-0.99;72.04
49102;BME280;34913;47.520;19.186;2023-04-06T05:10:16;99973.75;;;-0.91;72.08
49102;BME280;34913;47.520;19.186;2023-04-06T05:12:42;99968.13;;;-0.78;71.92
49102;BME280;34913;47.520;19.186;2023-04-06T05:15:08;99962.63;;;-0.71;72.26
49102;BME280;34913;47.520;19.186;2023-04-06T05:17:34;99970.09;;;-0.62;71.16
49102;BME280;34913;47.520;19.186;2023-04-06T05:19:59;99967.78;;;-0.46;70.81
49102;BME280;34913;47.520;19.186;2023-04-06T05:22:25;99961.28;;;-0.36;70.34
49102;BME280;34913;47.520;19.186;2023-04-06T05:24:51;99965.91;;;-0.20;70.03
49102;BME280;34913;47.520;19.186;2023-04-06T05:27:16;99963.78;;;-0.11;69.38
49102;BME280;34913;47.520;19.186;2023-04-06T05:29:42;99964.63;;;0.12;69.41
49102;BME280;34913;47.520;19.186;2023-04-06T05:32:07;99950.50;;;0.38;67.57
49102;BME280;34913;47.520;19.186;2023-04-06T05:34:33;99948.63;;;0.62;67.14
49102;BME280;34913;47.520;19.186;2023-04-06T05:36:58;99951.72;;;0.71;65.94
49102;BME280;34913;47.520;19.186;2023-04-06T05:39:24;99943.69;;;0.95;64.87
49102;BME280;34913;47.520;19.186;2023-04-06T05:41:50;99942.66;;;0.99;64.69
49102;BME280;34913;47.520;19.186;2023-04-06T05:44:15;99948.72;;;0.99;63.77
49102;BME280;34913;47.520;19.186;2023-04-06T05:46:41;99940.72;;;1.04;62.65
49102;BME280;34913;47.520;19.186;2023-04-06T05:49:06;99942.69;;;1.18;62.05
49102;BME280;34913;47.520;19.186;2023-04-06T05:51:31;99936.97;;;1.47;60.92
49102;BME280;34913;47.520;19.186;2023-04-06T05:53:57;99939.00;;;1.78;58.96
49102;BME280;34913;47.520;19.186;2023-04-06T05:56:23;99934.28;;;2.04;58.85
49102;BME280;34913;47.520;19.186;2023-04-06T05:58:49;99936.50;;;2.30;56.25
49102;BME280;34913;47.520;19.186;2023-04-06T06:01:14;99933.03;;;2.47;55.22
49102;BME280;34913;47.520;19.186;2023-04-06T06:03:40;99932.56;;;2.56;52.77
49102;BME280;34913;47.520;19.186;2023-04-06T06:06:06;99931.25;;;2.65;53.09
49102;BME280;34913;47.520;19.186;2023-04-06T06:08:31;99929.63;;;2.79;51.26
49102;BME280;34913;47.520;19.186;2023-04-06T06:10:57;99928.81;;;2.95;51.41
49102;BME280;34913;47.520;19.186;2023-04-06T06:13:23;99932.63;;;2.72;52.56
49102;BME280;34913;47.520;19.186;2023-04-06T06:15:49;99924.81;;;2.88;51.90
49102;BME280;34913;47.520;19.186;2023-04-06T06:18:15;99921.97;;;3.08;51.54
49102;BME280;34913;47.520;19.186;2023-04-06T06:20:41;99917.63;;;2.91;51.42
49102;BME280;34913;47.520;19.186;2023-04-06T06:23:06;99919.88;;;3.15;50.52
49102;BME280;34913;47.520;19.186;2023-04-06T06:25:32;99921.16;;;3.23;50.58
49102;BME280;34913;47.520;19.186;2023-04-06T06:27:58;99917.63;;;3.24;50.08
49102;BME280;34913;47.520;19.186;2023-04-06T06:30:23;99915.88;;;3.41;50.08
49102;BME280;34913;47.520;19.186;2023-04-06T06:32:50;99916.56;;;3.60;49.10
49102;BME280;34913;47.520;19.186;2023-04-06T06:35:16;99911.06;;;3.80;48.84
49102;BME280;34913;47.520;19.186;2023-04-06T06:37:41;99907.56;;;3.96;48.93
49102;BME280;34913;47.520;19.186;2023-04-06T06:40:08;99909.00;;;3.85;49.64
49102;BME280;34913;47.520;19.186;2023-04-06T06:42:34;99906.94;;;4.06;48.35
49102;BME280;34913;47.520;19.186;2023-04-06T06:45:00;99905.88;;;4.25;48.21
49102;BME280;34913;47.520;19.186;2023-04-06T06:47:25;99905.41;;;4.02;49.39
49102;BME280;34913;47.520;19.186;2023-04-06T06:49:51;99901.28;;;3.98;50.32
49102;BME280;34913;47.520;19.186;2023-04-06T06:52:17;99903.84;;;3.84;50.82
49102;BME280;34913;47.520;19.186;2023-04-06T06:54:42;99901.81;;;3.89;52.03
49102;BME280;34913;47.520;19.186;2023-04-06T06:57:08;99898.94;;;3.78;51.64
49102;BME280;34913;47.520;19.186;2023-04-06T06:59:34;99900.41;;;4.13;51.22
49102;BME280;34913;47.520;19.186;2023-04-06T07:02:00;99897.94;;;3.80;51.25
49102;BME280;34913;47.520;19.186;2023-04-06T07:04:25;99898.41;;;3.87;50.77
49102;BME280;34913;47.520;19.186;2023-04-06T07:06:50;99897.34;;;4.21;50.08
49102;BME280;34913;47.520;19.186;2023-04-06T07:09:18;99899.66;;;4.56;48.63
49102;BME280;34913;47.520;19.186;2023-04-06T07:11:43;99897.94;;;4.85;48.76
49102;BME280;34913;47.520;19.186;2023-04-06T07:14:09;99900.72;;;4.82;47.96
49102;BME280;34913;47.520;19.186;2023-04-06T07:16:34;99892.66;;;4.85;47.97
49102;BME280;34913;47.520;19.186;2023-04-06T07:19:00;99892.81;;;4.53;49.42
49102;BME280;34913;47.520;19.186;2023-04-06T07:21:25;99891.09;;;4.82;48.09
49102;BME280;34913;47.520;19.186;2023-04-06T07:23:51;99887.69;;;5.09;48.16
49102;BME280;34913;47.520;19.186;2023-04-06T07:26:17;99889.28;;;5.25;46.79
49102;BME280;34913;47.520;19.186;2023-04-06T07:28:42;99890.16;;;5.53;45.29
49102;BME280;34913;47.520;19.186;2023-04-06T07:31:08;99879.94;;;5.48;45.13
49102;BME280;34913;47.520;19.186;2023-04-06T07:33:36;99886.13;;;5.62;43.97
49102;BME280;34913;47.520;19.186;2023-04-06T07:36:02;99885.75;;;5.53;44.46
49102;BME280;34913;47.520;19.186;2023-04-06T07:38:28;99877.81;;;5.68;44.51
49102;BME280;34913;47.520;19.186;2023-04-06T07:40:53;99879.16;;;5.87;42.95
49102;BME280;34913;47.520;19.186;2023-04-06T07:43:19;99875.97;;;5.97;44.09
49102;BME280;34913;47.520;19.186;2023-04-06T07:45:44;99876.84;;;6.10;42.42
49102;BME280;34913;47.520;19.186;2023-04-06T07:48:10;99874.84;;;6.13;42.64
49102;BME280;34913;47.520;19.186;2023-04-06T07:50:36;99869.09;;;5.94;44.19
49102;BME280;34913;47.520;19.186;2023-04-06T07:53:01;99871.69;;;5.67;42.39
49102;BME280;34913;47.520;19.186;2023-04-06T07:55:27;99871.19;;;5.48;43.70
49102;BME280;34913;47.520;19.186;2023-04-06T07:57:53;99872.75;;;5.65;41.61
49102;BME280;34913;47.520;19.186;2023-04-06T08:00:18;99870.13;;;5.92;41.50
49102;BME280;34913;47.520;19.186;2023-04-06T08:02:44;99873.50;;;6.21;40.91
49102;BME280;34913;47.520;19.186;2023-04-06T08:05:10;99868.59;;;6.41;40.27
49102;BME280;34913;47.520;19.186;2023-04-06T08:07:35;99868.56;;;6.29;41.27
49102;BME280;34913;47.520;19.186;2023-04-06T08:10:01;99868.34;;;6.19;41.48
49102;BME280;34913;47.520;19.186;2023-04-06T08:12:27;99867.97;;;5.84;40.23
49102;BME280;34913;47.520;19.186;2023-04-06T08:14:52;99855.50;;;5.46;40.32
49102;BME280;34913;47.520;19.186;2023-04-06T08:17:18;99864.72;;;5.39;41.23
49102;BME280;34913;47.520;19.186;2023-04-06T08:19:44;99870.56;;;5.71;41.40
49102;BME280;34913;47.520;19.186;2023-04-06T08:22:10;99862.38;;;6.03;39.31
49102;BME280;34913;47.520;19.186;2023-04-06T08:24:36;99860.22;;;6.22;40.35
49102;BME280;34913;47.520;19.186;2023-04-06T08:27:02;99854.63;;;6.39;39.60
49102;BME280;34913;47.520;19.186;2023-04-06T08:29:28;99846.13;;;6.49;37.99
49102;BME280;34913;47.520;19.186;2023-04-06T08:31:53;99844.97;;;6.78;37.48
49102;BME280;34913;47.520;19.186;2023-04-06T08:34:20;99851.50;;;6.98;37.84
49102;BME280;34913;47.520;19.186;2023-04-06T08:36:45;99841.84;;;7.22;36.00
49102;BME280;34913;47.520;19.186;2023-04-06T08:39:11;99847.91;;;7.12;37.22
49102;BME280;34913;47.520;19.186;2023-04-06T08:41:37;99849.69;;;7.11;38.78
49102;BME280;34913;47.520;19.186;2023-04-06T08:44:03;99857.44;;;7.25;36.18
49102;BME280;34913;47.520;19.186;2023-04-06T08:46:30;99850.19;;;7.16;37.20
49102;BME280;34913;47.520;19.186;2023-04-06T08:48:57;99845.94;;;7.26;36.95
49102;BME280;34913;47.520;19.186;2023-04-06T08:51:24;99848.41;;;7.53;35.80
49102;BME280;34913;47.520;19.186;2023-04-06T08:53:56;99853.47;;;7.56;36.19
49102;BME280;34913;47.520;19.186;2023-04-06T08:56:26;99847.03;;;7.48;36.43
49102;BME280;34913;47.520;19.186;2023-04-06T08:58:53;99838.44;;;7.33;36.84
49102;BME280;34913;47.520;19.186;2023-04-06T09:01:26;99840.53;;;6.53;37.57
49102;BME280;34913;47.520;19.186;2023-04-06T09:03:59;99837.47;;;6.59;38.72
49102;BME280;34913;47.520;19.186;2023-04-06T09:06:30;99839.44;;;6.94;37.64
49102;BME280;34913;47.520;19.186;2023-04-06T09:08:56;99846.03;;;7.38;35.89
49102;BME280;34913;47.520;19.186;2023-04-06T09:11:22;99845.66;;;7.55;34.95
49102;BME280;34913;47.520;19.186;2023-04-06T09:13:52;99834.00;;;7.57;35.74
49102;BME280;34913;47.520;19.186;2023-04-06T09:16:18;99835.38;;;7.63;37.37
49102;BME280;34913;47.520;19.186;2023-04-06T09:18:45;99833.25;;;7.68;35.55
49102;BME280;34913;47.520;19.186;2023-04-06T09:21:11;99832.97;;;7.60;36.08
49102;BME280;34913;47.520;19.186;2023-04-06T09:23:37;99829.81;;;7.79;35.02
49102;BME280;34913;47.520;19.186;2023-04-06T09:26:13;99836.22;;;7.88;35.81
49102;BME280;34913;47.520;19.186;2023-04-06T09:28:50;99829.66;;;7.69;36.47
49102;BME280;34913;47.520;19.186;2023-04-06T09:31:21;99825.72;;;7.51;37.42
49102;BME280;34913;47.520;19.186;2023-04-06T09:33:47;99821.97;;;7.30;37.62
49102;BME280;34913;47.520;19.186;2023-04-06T09:36:13;99820.09;;;7.55;36.66
49102;BME280;34913;47.520;19.186;2023-04-06T09:38:55;99827.03;;;7.33;37.62
49102;BME280;34913;47.520;19.186;2023-04-06T09:41:23;99816.72;;;7.17;36.82
49102;BME280;34913;47.520;19.186;2023-04-06T09:43:52;99816.66;;;6.93;38.62
49102;BME280;34913;47.520;19.186;2023-04-06T09:46:26;99815.41;;;7.35;37.07
49102;BME280;34913;47.520;19.186;2023-04-06T09:48:52;99818.34;;;7.43;37.31
49102;BME280;34913;47.520;19.186;2023-04-06T09:51:19;99819.00;;;7.58;37.11
49102;BME280;34913;47.520;19.186;2023-04-06T09:53:48;99820.75;;;7.70;37.69
49102;BME280;34913;47.520;19.186;2023-04-06T09:56:21;99816.63;;;8.14;35.54
49102;BME280;34913;47.520;19.186;2023-04-06T09:58:49;99801.88;;;8.23;35.68
49102;BME280;34913;47.520;19.186;2023-04-06T10:01:19;99802.34;;;8.28;36.21
49102;BME280;34913;47.520;19.186;2023-04-06T10:04:13;99791.16;;;7.89;38.46
49102;BME280;34913;47.520;19.186;2023-04-06T10:06:46;99811.06;;;8.06;37.14
49102;BME280;34913;47.520;19.186;2023-04-06T10:09:17;99811.66;;;7.98;36.04
49102;BME280;34913;47.520;19.186;2023-04-06T10:11:43;99804.03;;;7.82;35.21
49102;BME280;34913;47.520;19.186;2023-04-06T10:14:09;99792.84;;;8.14;37.15
49102;BME280;34913;47.520;19.186;2023-04-06T10:16:35;99787.88;;;8.09;35.36
49102;BME280;34913;47.520;19.186;2023-04-06T10:19:13;99796.28;;;8.50;35.69
49102;BME280;34913;47.520;19.186;2023-04-06T10:21:41;99800.72;;;8.49;35.42
49102;BME280;34913;47.520;19.186;2023-04-06T10:24:09;99791.38;;;8.21;35.11
49102;BME280;34913;47.520;19.186;2023-04-06T10:26:39;99793.50;;;8.40;34.58
49102;BME280;34913;47.520;19.186;2023-04-06T10:29:05;99782.78;;;8.30;34.65
49102;BME280;34913;47.520;19.186;2023-04-06T10:31:31;99778.84;;;8.47;34.63
49102;BME280;34913;47.520;19.186;2023-04-06T10:34:01;99780.63;;;8.35;34.60
49102;BME280;34913;47.520;19.186;2023-04-06T10:36:31;99777.69;;;8.27;34.36
49102;BME280;34913;47.520;19.186;2023-04-06T10:38:59;99770.69;;;8.50;35.40
49102;BME280;34913;47.520;19.186;2023-04-06T10:41:33;99766.72;;;8.67;33.39
49102;BME280;34913;47.520;19.186;2023-04-06T10:43:59;99766.47;;;8.59;34.96
49102;BME280;34913;47.520;19.186;2023-04-06T10:46:29;99774.47;;;8.24;34.16
49102;BME280;34913;47.520;19.186;2023-04-06T10:48:55;99762.75;;;8.39;34.65
49102;BME280;34913;47.520;19.186;2023-04-06T10:51:25;99758.56;;;8.12;34.32
49102;BME280;34913;47.520;19.186;2023-04-06T10:53:53;99762.59;;;7.83;35.31
49102;BME280;34913;47.520;19.186;2023-04-06T10:56:21;99763.13;;;7.99;35.72
49102;BME280;34913;47.520;19.186;2023-04-06T10:58:49;99761.75;;;7.94;34.48
49102;BME280;34913;47.520;19.186;2023-04-06T11:01:17;99754.16;;;8.24;34.72
49102;BME280;34913;47.520;19.186;2023-04-06T11:03:47;99754.81;;;8.50;34.75
49102;BME280;34913;47.520;19.186;2023-04-06T11:06:23;99749.28;;;8.53;34.90
49102;BME280;34913;47.520;19.186;2023-04-06T11:08:50;99748.44;;;8.75;34.29
49102;BME280;34913;47.520;19.186;2023-04-06T11:11:18;99743.13;;;8.53;33.44
49102;BME280;34913;47.520;19.186;2023-04-06T11:16:16;99749.34;;;9.08;32.74
49102;BME280;34913;47.520;19.186;2023-04-06T11:18:52;99752.06;;;8.85;32.40
49102;BME280;34913;47.520;19.186;2023-04-06T11:21:19;99747.34;;;8.66;31.90
49102;BME280;34913;47.520;19.186;2023-04-06T11:23:45;99747.25;;;8.46;34.36
49102;BME280;34913;47.520;19.186;2023-04-06T11:26:14;99748.69;;;8.38;33.15
49102;BME280;34913;47.520;19.186;2023-04-06T11:28:43;99741.66;;;8.15;35.13
49102;BME280;34913;47.520;19.186;2023-04-06T11:31:09;99739.53;;;8.65;35.18
49102;BME280;34913;47.520;19.186;2023-04-06T11:33:37;99740.13;;;8.57;31.85
49102;BME280;34913;47.520;19.186;2023-04-06T11:36:04;99737.00;;;8.41;33.19
49102;BME280;34913;47.520;19.186;2023-04-06T11:38:30;99733.59;;;8.17;33.20
49102;BME280;34913;47.520;19.186;2023-04-06T11:40:56;99734.44;;;8.28;32.90
49102;BME280;34913;47.520;19.186;2023-04-06T11:43:30;99737.06;;;8.17;33.67
49102;BME280;34913;47.520;19.186;2023-04-06T11:46:00;99733.41;;;7.96;34.46
49102;BME280;34913;47.520;19.186;2023-04-06T11:48:27;99737.88;;;7.60;32.43
49102;BME280;34913;47.520;19.186;2023-04-06T11:50:59;99737.44;;;7.66;33.98
49102;BME280;34913;47.520;19.186;2023-04-06T11:53:29;99726.38;;;7.72;33.71
49102;BME280;34913;47.520;19.186;2023-04-06T11:55:55;99736.22;;;7.70;33.48
49102;BME280;34913;47.520;19.186;2023-04-06T11:58:21;99732.25;;;7.65;33.88
49102;BME280;34913;47.520;19.186;2023-04-06T12:00:46;99727.78;;;7.65;33.76
49102;BME280;34913;47.520;19.186;2023-04-06T12:03:12;99733.06;;;7.65;33.96
49102;BME280;34913;47.520;19.186;2023-04-06T12:05:38;99731.97;;;7.56;34.09
49102;BME280;34913;47.520;19.186;2023-04-06T12:08:03;99724.16;;;7.55;33.20
49102;BME280;34913;47.520;19.186;2023-04-06T12:10:29;99721.53;;;7.55;35.72
49102;BME280;34913;47.520;19.186;2023-04-06T12:12:55;99726.09;;;7.53;34.18
49102;BME280;34913;47.520;19.186;2023-04-06T12:15:20;99717.88;;;7.80;33.18
49102;BME280;34913;47.520;19.186;2023-04-06T12:17:46;99720.31;;;7.83;33.80
49102;BME280;34913;47.520;19.186;2023-04-06T12:20:12;99716.59;;;7.97;33.53
49102;BME280;34913;47.520;19.186;2023-04-06T12:22:38;99718.66;;;8.04;33.35
49102;BME280;34913;47.520;19.186;2023-04-06T12:25:05;99720.59;;;8.02;34.35
49102;BME280;34913;47.520;19.186;2023-04-06T12:27:32;99716.97;;;8.03;34.22
49102;BME280;34913;47.520;19.186;2023-04-06T12:29:57;99709.94;;;7.80;33.67
49102;BME280;34913;47.520;19.186;2023-04-06T12:32:23;99707.09;;;7.83;38.21
49102;BME280;34913;47.520;19.186;2023-04-06T12:34:48;99706.84;;;7.75;35.03
49102;BME280;34913;47.520;19.186;2023-04-06T12:37:14;99704.94;;;7.88;33.32
49102;BME280;34913;47.520;19.186;2023-04-06T12:39:40;99706.03;;;7.97;35.04
49102;BME280;34913;47.520;19.186;2023-04-06T12:42:06;99704.72;;;7.91;34.72
49102;BME280;34913;47.520;19.186;2023-04-06T12:44:32;99706.66;;;8.11;35.43
49102;BME280;34913;47.520;19.186;2023-04-06T12:46:57;99703.28;;;8.21;34.89
49102;BME280;34913;47.520;19.186;2023-04-06T12:49:22;99697.84;;;7.89;34.37
49102;BME280;34913;47.520;19.186;2023-04-06T12:51:48;99699.88;;;7.85;35.01